Time;durP1;ratioP1;P1;durP2;ratioP2;P2;SDS_P1;SDS_P2;PMS_P1;PMS_P2;Temp;Humidity;BMP_temperature;BMP_pressure;BME280_temperature;BME280_humidity;BME280_pressure;Samples;Min_cycle;Max_cycle;Signal;HPM_P1;HPM_P2
2022/08/13 00:00:59;;;;;;;0.55;0.28;;;18.70;99.90;;;;;;4998438;28;20049;-83
2022/08/13 00:03:28;;;;;;;0.45;0.25;;;18.70;99.90;;;;;;4999458;28;20030;-83
2022/08/13 00:05:55;;;;;;;0.98;0.40;;;18.60;99.90;;;;;;4998311;28;20107;-83
2022/08/13 00:08:25;;;;;;;0.15;0.15;;;18.60;99.90;;;;;;4998912;28;20041;-83
2022/08/13 00:10:52;;;;;;;0.20;0.20;;;18.60;99.90;;;;;;4983183;28;20134;-83
2022/08/13 00:13:19;;;;;;;0.40;0.35;;;18.60;99.90;;;;;;5030738;28;20045;-85
2022/08/13 00:15:47;;;;;;;0.32;0.32;;;18.60;99.90;;;;;;5030130;28;20418;-85
2022/08/13 00:18:18;;;;;;;0.32;0.32;;;18.60;99.90;;;;;;4998342;28;20406;-85
2022/08/13 00:20:53;;;;;;;0.45;0.30;;;18.50;99.90;;;;;;5014093;28;20046;-85
2022/08/13 00:23:23;;;;;;;0.47;0.40;;;18.50;99.90;;;;;;5014493;28;20483;-85
2022/08/13 00:25:54;;;;;;;0.63;0.60;;;18.50;99.90;;;;;;5013991;28;20042;-83
2022/08/13 00:28:24;;;;;;;0.52;0.43;;;18.50;99.90;;;;;;5014211;28;20403;-84
2022/08/13 00:30:51;;;;;;;0.30;0.30;;;18.40;99.90;;;;;;5013956;28;20042;-83
2022/08/13 00:33:21;;;;;;;0.25;0.25;;;18.40;99.90;;;;;;4998043;28;20041;-83
2022/08/13 00:35:50;;;;;;;0.75;0.60;;;18.40;99.90;;;;;;5013827;28;20042;-85
2022/08/13 00:38:20;;;;;;;0.20;0.20;;;18.40;99.90;;;;;;5014083;28;20041;-85
2022/08/13 00:40:50;;;;;;;0.70;0.35;;;18.40;99.90;;;;;;5013852;28;20038;-85
2022/08/13 00:43:17;;;;;;;0.52;0.40;;;18.30;99.90;;;;;;5013897;28;20042;-85
2022/08/13 00:45:44;;;;;;;0.63;0.40;;;18.30;99.90;;;;;;4982229;28;20041;-85
2022/08/13 00:50:59;;;;;;;0.57;0.50;;;18.30;99.90;;;;;;5016267;28;20042;-85
2022/08/13 00:53:30;;;;;;;0.52;0.40;;;18.20;99.90;;;;;;5013310;28;20042;-85
2022/08/13 00:55:58;;;;;;;0.30;0.28;;;18.20;99.90;;;;;;5029920;28;20042;-83
2022/08/13 00:58:27;;;;;;;0.43;0.40;;;18.20;99.90;;;;;;5013761;28;20403;-85
2022/08/13 01:00:57;;;;;;;0.50;0.50;;;18.10;99.90;;;;;;4997439;28;20081;-83
2022/08/13 01:03:25;;;;;;;0.43;0.40;;;18.10;99.90;;;;;;4997770;28;20049;-83
2022/08/13 01:05:59;;;;;;;0.80;0.63;;;18.10;99.90;;;;;;4997404;28;20529;-85
2022/08/13 01:08:31;;;;;;;0.38;0.32;;;18.10;99.90;;;;;;4998533;28;20037;-85
2022/08/13 01:11:06;;;;;;;0.43;0.30;;;18.10;99.90;;;;;;4998176;28;20037;-83
2022/08/13 01:13:36;;;;;;;0.65;0.40;;;18.10;99.90;;;;;;5013615;28;20056;-85
2022/08/13 01:16:05;;;;;;;0.40;0.40;;;18.00;99.90;;;;;;5029553;28;20082;-84
2022/08/13 01:18:36;;;;;;;0.80;0.50;;;18.00;99.90;;;;;;4997641;28;20487;-83
2022/08/13 01:21:13;;;;;;;0.50;0.50;;;18.00;99.90;;;;;;4997737;28;20045;-85
2022/08/13 01:23:44;;;;;;;0.40;0.35;;;17.90;99.90;;;;;;5029668;28;20042;-83
2022/08/13 01:26:16;;;;;;;0.70;0.45;;;17.90;99.90;;;;;;4982513;28;20038;-84
2022/08/13 01:28:44;;;;;;;0.55;0.40;;;17.90;99.90;;;;;;5014142;28;20045;-85
2022/08/13 01:31:13;;;;;;;0.40;0.40;;;17.80;99.90;;;;;;4997346;28;20137;-85
2022/08/13 01:33:43;;;;;;;0.77;0.50;;;17.80;99.90;;;;;;5014042;28;20419;-85
2022/08/13 01:36:11;;;;;;;0.55;0.47;;;17.80;99.90;;;;;;5013425;28;20100;-85
2022/08/13 01:38:40;;;;;;;0.75;0.50;;;17.80;99.90;;;;;;4997678;28;20115;-85
2022/08/13 01:41:10;;;;;;;0.40;0.40;;;17.70;99.90;;;;;;5013406;28;20037;-84
2022/08/13 01:43:38;;;;;;;0.20;0.20;;;17.70;99.90;;;;;;5013527;28;20078;-85
2022/08/13 01:46:08;;;;;;;0.65;0.50;;;17.70;99.90;;;;;;5013280;28;20410;-85
2022/08/13 01:51:29;;;;;;;1.05;0.60;;;17.70;99.90;;;;;;5029552;28;20514;-84
2022/08/13 01:54:00;;;;;;;0.90;0.55;;;17.70;99.90;;;;;;5016159;28;20471;-85
2022/08/13 01:56:28;;;;;;;0.60;0.50;;;17.70;99.90;;;;;;5013876;28;20046;-85
2022/08/13 01:58:58;;;;;;;0.70;0.45;;;17.70;99.90;;;;;;5013311;28;20125;-85
2022/08/13 02:01:26;;;;;;;0.20;0.20;;;17.70;99.90;;;;;;5033293;28;20033;-85
2022/08/13 02:03:57;;;;;;;0.47;0.40;;;17.60;99.90;;;;;;5016995;28;20049;-84
2022/08/13 02:06:29;;;;;;;0.82;0.60;;;17.60;99.90;;;;;;5016997;28;20422;-85
2022/08/13 02:08:59;;;;;;;0.57;0.40;;;17.60;99.90;;;;;;5032934;28;20077;-85
2022/08/13 02:11:35;;;;;;;0.80;0.50;;;17.50;99.90;;;;;;5033268;28;20502;-83
2022/08/13 02:14:04;;;;;;;0.20;0.20;;;17.50;99.90;;;;;;5032830;28;20133;-84
2022/08/13 02:16:33;;;;;;;0.38;0.32;;;17.50;99.90;;;;;;5032822;28;20041;-86
2022/08/13 02:19:02;;;;;;;0.30;0.30;;;17.40;99.90;;;;;;5049238;28;20076;-84
2022/08/13 02:21:33;;;;;;;0.73;0.50;;;17.40;99.90;;;;;;5016744;28;20407;-85
2022/08/13 02:24:03;;;;;;;0.68;0.50;;;17.30;99.90;;;;;;5032499;28;20564;-85
2022/08/13 02:26:32;;;;;;;0.40;0.40;;;17.30;99.90;;;;;;5032701;28;20418;-84
2022/08/13 02:29:01;;;;;;;0.43;0.40;;;17.40;99.90;;;;;;5032674;28;20053;-85
2022/08/13 02:31:28;;;;;;;0.38;0.38;;;17.40;99.90;;;;;;5032712;28;20494;-83
2022/08/13 02:33:56;;;;;;;0.98;0.60;;;17.30;99.90;;;;;;5032660;28;20128;-85
2022/08/13 02:36:24;;;;;;;0.52;0.38;;;17.30;99.90;;;;;;5032438;28;20034;-85
2022/08/13 02:39:03;;;;;;;0.82;0.40;;;17.30;99.90;;;;;;5016539;28;20038;-85
2022/08/13 02:41:38;;;;;;;0.40;0.40;;;17.30;99.90;;;;;;5032391;28;20136;-83
2022/08/13 02:44:08;;;;;;;0.60;0.55;;;17.30;99.90;;;;;;5014770;28;20070;-83
2022/08/13 02:46:34;;;;;;;0.40;0.40;;;17.20;99.90;;;;;;5035784;28;20038;-83
2022/08/13 02:49:02;;;;;;;0.25;0.25;;;17.20;99.90;;;;;;5031662;28;20042;-84
2022/08/13 02:51:31;;;;;;;0.50;0.40;;;17.20;99.90;;;;;;5016747;28;20073;-85
2022/08/13 02:54:00;;;;;;;0.40;0.40;;;17.20;99.90;;;;;;5032108;28;20065;-83
2022/08/13 02:56:28;;;;;;;1.02;0.50;;;17.10;99.90;;;;;;5000121;28;20049;-85
2022/08/13 02:58:56;;;;;;;0.35;0.32;;;17.10;99.90;;;;;;5015763;28;20057;-85
2022/08/13 03:01:26;;;;;;;0.50;0.30;;;17.10;99.90;;;;;;5031826;28;20569;-85
2022/08/13 03:03:53;;;;;;;0.32;0.28;;;17.00;99.90;;;;;;5048429;28;20128;-83
2022/08/13 03:06:22;;;;;;;0.45;0.40;;;17.10;99.90;;;;;;4999546;28;20040;-84
2022/08/13 03:08:51;;;;;;;0.32;0.30;;;17.00;99.90;;;;;;5032057;28;20045;-85
2022/08/13 03:11:19;;;;;;;0.70;0.50;;;17.00;99.90;;;;;;4999507;28;20057;-85
2022/08/13 03:13:56;;;;;;;0.65;0.45;;;17.00;99.90;;;;;;5048367;28;20442;-85
2022/08/13 03:16:25;;;;;;;0.30;0.30;;;17.00;99.90;;;;;;5031653;28;20181;-84
2022/08/13 03:18:53;;;;;;;0.38;0.38;;;16.90;99.90;;;;;;5032146;28;20038;-85
2022/08/13 03:21:30;;;;;;;0.30;0.30;;;16.90;99.90;;;;;;5015316;28;20076;-83
2022/08/13 03:23:57;;;;;;;0.60;0.50;;;16.90;99.90;;;;;;5031821;28;20036;-84
2022/08/13 03:26:24;;;;;;;0.30;0.30;;;16.90;99.90;;;;;;4999545;28;20132;-83
2022/08/13 03:28:51;;;;;;;0.88;0.52;;;16.80;99.90;;;;;;4999767;28;20045;-85
2022/08/13 03:31:18;;;;;;;0.93;0.70;;;16.80;99.90;;;;;;5031496;28;20407;-83
2022/08/13 03:33:46;;;;;;;0.82;0.50;;;16.80;99.90;;;;;;5031635;28;20045;-83
2022/08/13 03:36:13;;;;;;;0.65;0.50;;;16.70;99.90;;;;;;4999066;28;20041;-83
2022/08/13 03:38:40;;;;;;;1.85;0.63;;;16.70;99.90;;;;;;4998747;28;20396;-83
2022/08/13 03:41:14;;;;;;;0.52;0.40;;;16.70;99.90;;;;;;5031070;28;20042;-84
2022/08/13 03:43:44;;;;;;;0.43;0.38;;;16.60;99.90;;;;;;5031722;28;20124;-83
2022/08/13 03:46:13;;;;;;;0.88;0.57;;;16.60;99.90;;;;;;5031155;28;20049;-84
2022/08/13 03:48:40;;;;;;;0.40;0.40;;;16.60;99.90;;;;;;5031096;28;20034;-85
2022/08/13 03:51:09;;;;;;;0.80;0.50;;;16.20;99.90;;;;;;5015035;28;20048;-83
2022/08/13 03:53:36;;;;;;;0.40;0.40;;;16.50;99.90;;;;;;5014628;28;20053;-85
2022/08/13 03:56:05;;;;;;;0.47;0.47;;;16.50;99.90;;;;;;5030650;28;20045;-85
2022/08/13 03:58:33;;;;;;;0.35;0.30;;;16.50;99.90;;;;;;5030182;28;20049;-85
2022/08/13 04:01:01;;;;;;;2.50;0.70;;;16.40;99.90;;;;;;5014383;28;20038;-84
2022/08/13 04:03:30;;;;;;;0.52;0.45;;;16.40;99.90;;;;;;5014153;28;20041;-85
2022/08/13 04:06:06;;;;;;;0.52;0.45;;;16.40;99.90;;;;;;5031107;28;20121;-85
2022/08/13 04:08:37;;;;;;;0.50;0.50;;;16.40;99.90;;;;;;5030810;28;20033;-84
2022/08/13 04:11:06;;;;;;;1.30;0.47;;;16.40;99.90;;;;;;5014229;28;20052;-83
2022/08/13 04:13:39;;;;;;;2.30;0.50;;;16.40;99.90;;;;;;5030219;28;20042;-85
2022/08/13 04:16:08;;;;;;;0.68;0.50;;;16.40;99.90;;;;;;4999855;28;20080;-83
2022/08/13 04:18:38;;;;;;;0.47;0.40;;;16.30;99.90;;;;;;5030164;28;20082;-84
2022/08/13 04:21:09;;;;;;;0.73;0.38;;;16.30;99.90;;;;;;5014837;28;20045;-83
2022/08/13 04:23:39;;;;;;;0.88;0.45;;;16.30;99.90;;;;;;5029207;28;20068;-84
2022/08/13 04:26:08;;;;;;;0.63;0.40;;;16.30;99.90;;;;;;5014383;28;20056;-85
2022/08/13 04:28:38;;;;;;;0.52;0.47;;;16.30;99.90;;;;;;5014299;28;20728;-83
2022/08/13 04:31:05;;;;;;;0.60;0.47;;;16.30;99.90;;;;;;5030752;28;20120;-85
2022/08/13 04:33:34;;;;;;;1.40;0.52;;;16.20;99.90;;;;;;4997844;28;20042;-85
2022/08/13 04:36:01;;;;;;;0.35;0.35;;;16.30;99.90;;;;;;4998566;28;20037;-83
2022/08/13 04:38:27;;;;;;;0.40;0.40;;;16.30;99.90;;;;;;5013695;28;20068;-83
2022/08/13 04:40:54;;;;;;;0.75;0.55;;;16.30;99.90;;;;;;5046207;28;20046;-85
2022/08/13 04:43:21;;;;;;;0.30;0.30;;;16.30;99.90;;;;;;4998240;28;20045;-85
2022/08/13 04:45:48;;;;;;;0.70;0.57;;;16.30;99.90;;;;;;5014045;28;20111;-85
2022/08/13 04:48:16;;;;;;;0.38;0.35;;;16.30;99.90;;;;;;5013763;28;20041;-82
2022/08/13 04:50:46;;;;;;;0.98;0.50;;;16.30;99.90;;;;;;5030336;28;20038;-83
2022/08/13 04:53:31;;;;;;;0.75;0.57;;;16.30;99.90;;;;;;5029866;28;20188;-83
2022/08/13 04:55:59;;;;;;;0.70;0.43;;;16.30;99.90;;;;;;5013740;28;20049;-84
2022/08/13 04:58:35;;;;;;;1.05;0.65;;;16.30;99.90;;;;;;5029373;28;20128;-84
2022/08/13 05:01:09;;;;;;;0.70;0.60;;;16.40;99.90;;;;;;5013633;28;20468;-83
2022/08/13 05:03:41;;;;;;;0.85;0.55;;;16.40;99.90;;;;;;5013404;28;20511;-85
2022/08/13 05:06:12;;;;;;;0.47;0.40;;;16.40;99.90;;;;;;4998285;28;20041;-83
2022/08/13 05:08:40;;;;;;;0.50;0.40;;;16.40;99.90;;;;;;5013366;28;20049;-83
2022/08/13 05:11:12;;;;;;;0.45;0.43;;;16.40;99.90;;;;;;5029817;28;20038;-83
2022/08/13 05:13:40;;;;;;;0.77;0.50;;;16.40;99.90;;;;;;4982071;28;20050;-83
2022/08/13 05:16:10;;;;;;;0.32;0.32;;;16.50;99.90;;;;;;5013669;28;20045;-83
2022/08/13 05:18:42;;;;;;;0.40;0.40;;;16.50;99.90;;;;;;5013268;28;20518;-83
2022/08/13 05:21:09;;;;;;;0.35;0.35;;;16.50;99.90;;;;;;5006116;28;20455;-83
2022/08/13 05:23:37;;;;;;;0.73;0.50;;;16.60;99.90;;;;;;4974464;28;20034;-84
2022/08/13 05:26:05;;;;;;;0.80;0.40;;;16.60;99.90;;;;;;5000476;28;20046;-84
2022/08/13 05:28:32;;;;;;;0.40;0.40;;;16.60;99.90;;;;;;4993656;28;20042;-85
2022/08/13 05:31:00;;;;;;;0.70;0.43;;;16.70;99.90;;;;;;4968923;28;20034;-83
2022/08/13 05:33:29;;;;;;;0.45;0.43;;;16.70;99.90;;;;;;4974680;28;20113;-83
2022/08/13 05:36:03;;;;;;;0.40;0.40;;;16.80;99.90;;;;;;4963135;28;20046;-84
2022/08/13 05:38:31;;;;;;;0.35;0.35;;;16.90;99.90;;;;;;4978739;28;20093;-83
2022/08/13 05:41:00;;;;;;;0.43;0.40;;;16.90;99.90;;;;;;4954752;28;20043;-85
2022/08/13 05:43:30;;;;;;;0.95;0.60;;;17.00;99.90;;;;;;4978114;28;20464;-83
2022/08/13 05:45:59;;;;;;;1.13;0.65;;;17.00;99.90;;;;;;5000255;28;20042;-85
2022/08/13 05:48:28;;;;;;;0.30;0.30;;;17.10;99.90;;;;;;4997401;28;20042;-83
2022/08/13 05:50:59;;;;;;;4.93;0.75;;;17.10;99.90;;;;;;4981444;28;20068;-85
2022/08/13 05:53:27;;;;;;;0.63;0.43;;;17.30;99.90;;;;;;4964710;28;20042;-84
2022/08/13 05:55:54;;;;;;;1.02;0.77;;;17.30;99.90;;;;;;4981713;28;20392;-84
2022/08/13 05:58:23;;;;;;;0.30;0.30;;;17.30;99.90;;;;;;4981571;28;20085;-83
2022/08/13 06:03:37;;;;;;;0.25;0.25;;;17.40;99.90;;;;;;5036538;28;20120;-84
2022/08/13 06:06:08;;;;;;;0.35;0.30;;;17.40;99.90;;;;;;5000993;28;20084;-82
2022/08/13 06:08:38;;;;;;;0.40;0.40;;;17.50;99.90;;;;;;5016594;28;20040;-85
2022/08/13 06:11:08;;;;;;;0.43;0.30;;;17.60;99.90;;;;;;4996943;28;20068;-83
2022/08/13 06:13:40;;;;;;;0.43;0.30;;;17.60;99.90;;;;;;4997022;28;20049;-83
2022/08/13 06:16:08;;;;;;;0.40;0.30;;;17.70;99.90;;;;;;5004874;28;20064;-85
2022/08/13 06:18:37;;;;;;;0.77;0.50;;;17.80;99.90;;;;;;4984295;28;20053;-85
2022/08/13 06:21:07;;;;;;;0.52;0.38;;;17.80;99.90;;;;;;5012891;28;20053;-85
2022/08/13 06:23:35;;;;;;;0.63;0.50;;;18.00;99.90;;;;;;5012754;28;20053;-85
2022/08/13 06:26:03;;;;;;;0.30;0.30;;;18.10;99.90;;;;;;4997292;28;20512;-83
2022/08/13 06:28:32;;;;;;;0.40;0.40;;;18.10;99.90;;;;;;4996861;28;20403;-83
2022/08/13 06:31:03;;;;;;;0.32;0.32;;;18.20;99.90;;;;;;5009609;28;20038;-86
2022/08/13 06:33:32;;;;;;;0.88;0.50;;;18.30;99.90;;;;;;5000555;28;20040;-83
2022/08/13 06:36:05;;;;;;;0.73;0.52;;;18.40;99.90;;;;;;5000425;28;20064;-86
2022/08/13 06:38:35;;;;;;;0.60;0.47;;;18.40;99.90;;;;;;5016251;28;20082;-83
2022/08/13 06:41:05;;;;;;;0.45;0.40;;;18.50;99.90;;;;;;5016237;28;20137;-83
2022/08/13 06:43:40;;;;;;;0.32;0.32;;;18.60;99.90;;;;;;5015771;28;20041;-83
2022/08/13 06:46:08;;;;;;;;;;;18.70;99.90;;;;;;5015383;28;20048;-85
2022/08/13 06:48:35;;;;;;;0.55;0.55;;;18.90;99.90;;;;;;5015377;28;19920;-85
2022/08/13 06:51:06;;;;;;;0.40;0.30;;;19.00;99.90;;;;;;5015911;28;20510;-83
2022/08/13 06:53:37;;;;;;;0.43;0.40;;;19.10;99.90;;;;;;4999731;28;20082;-83
2022/08/13 06:56:06;;;;;;;0.57;0.47;;;19.30;99.90;;;;;;5032092;28;20054;-86
2022/08/13 06:58:33;;;;;;;0.40;0.32;;;19.40;99.90;;;;;;5031715;28;20064;-84
2022/08/13 07:01:00;;;;;;;0.20;0.20;;;19.50;99.90;;;;;;5012610;28;20504;-84
2022/08/13 07:03:29;;;;;;;0.38;0.25;;;19.60;99.90;;;;;;4992343;28;20041;-84
2022/08/13 07:05:57;;;;;;;0.52;0.38;;;19.90;99.90;;;;;;5015743;28;20482;-84
2022/08/13 07:08:26;;;;;;;1.25;0.57;;;20.10;99.90;;;;;;4999546;28;20572;-83
2022/08/13 07:13:43;;;;;;;0.43;0.43;;;20.50;99.90;;;;;;5018238;28;20522;-83
2022/08/13 07:16:18;;;;;;;0.35;0.30;;;20.60;99.90;;;;;;5015696;28;20416;-83
2022/08/13 07:18:46;;;;;;;0.20;0.20;;;20.70;99.90;;;;;;5015497;28;20045;-86
2022/08/13 07:21:15;;;;;;;0.22;0.22;;;20.90;99.90;;;;;;5015559;28;20046;-83
2022/08/13 07:23:43;;;;;;;0.60;0.52;;;21.00;99.90;;;;;;5015338;28;20050;-81
2022/08/13 07:26:14;;;;;;;0.50;0.50;;;21.30;99.90;;;;;;5015565;28;20045;-81
2022/08/13 07:28:41;;;;;;;0.43;0.30;;;21.50;99.90;;;;;;5011955;28;20042;-85
2022/08/13 07:31:09;;;;;;;0.22;0.20;;;21.70;99.90;;;;;;5011312;28;20460;-83
2022/08/13 07:33:48;;;;;;;0.47;0.40;;;21.80;99.90;;;;;;4994019;28;20041;-80
2022/08/13 07:36:15;;;;;;;0.90;0.50;;;22.00;99.90;;;;;;5031591;28;20486;-81
2022/08/13 07:38:42;;;;;;;8.18;0.52;;;22.20;99.90;;;;;;4982822;28;20072;-84
2022/08/13 07:41:13;;;;;;;0.63;0.40;;;22.30;99.90;;;;;;4982985;28;20049;-84
2022/08/13 07:43:44;;;;;;;0.20;0.20;;;22.40;99.90;;;;;;5011682;28;20404;-85
2022/08/13 07:46:15;;;;;;;0.50;0.38;;;22.50;99.90;;;;;;4995672;28;20045;-86
2022/08/13 07:48:50;;;;;;;0.52;0.30;;;22.70;99.90;;;;;;5008324;28;20033;-86
2022/08/13 07:51:19;;;;;;;1.10;0.55;;;22.80;99.90;;;;;;5001096;28;20052;-85
2022/08/13 07:53:52;;;;;;;0.50;0.40;;;22.90;99.90;;;;;;5014201;28;20058;-86
2022/08/13 07:56:28;;;;;;;0.60;0.40;;;23.10;99.90;;;;;;5014879;28;20052;-87
2022/08/13 07:59:06;;;;;;;0.52;0.30;;;23.30;99.90;;;;;;5002471;28;20043;-83
2022/08/13 08:01:48;;;;;;;1.25;0.50;;;23.40;99.90;;;;;;5005422;28;20085;-80
2022/08/13 08:04:16;;;;;;;0.20;0.20;;;23.60;99.90;;;;;;4995564;28;20462;-88
2022/08/13 08:06:48;;;;;;;0.47;0.30;;;23.80;99.90;;;;;;4979812;28;20447;-86
2022/08/13 08:09:26;;;;;;;0.30;0.30;;;23.90;99.90;;;;;;5020780;28;20498;-89
2022/08/13 08:14:38;;;;;;;0.22;0.20;;;24.20;99.90;;;;;;5007306;28;20050;-88
2022/08/13 08:17:11;;;;;;;0.25;0.20;;;24.40;99.90;;;;;;4982658;28;20042;-86
2022/08/13 08:19:39;;;;;;;0.40;0.40;;;24.50;99.90;;;;;;5003322;28;20052;-90
2022/08/13 08:22:07;;;;;;;0.50;0.32;;;24.70;99.90;;;;;;4984801;28;20053;-86
2022/08/13 08:24:34;;;;;;;0.63;0.40;;;24.90;99.90;;;;;;5000044;28;20039;-82
2022/08/13 08:27:09;;;;;;;0.68;0.40;;;25.10;99.90;;;;;;5030254;28;20042;-86
2022/08/13 08:29:40;;;;;;;0.30;0.30;;;25.30;99.90;;;;;;5014457;28;20050;-83
2022/08/13 08:32:10;;;;;;;0.30;0.30;;;25.40;99.90;;;;;;4995714;28;20053;-85
2022/08/13 08:34:44;;;;;;;0.20;0.20;;;25.60;98.90;;;;;;4975558;28;20082;-84
2022/08/13 08:42:35;;;;;;;0.43;0.30;;;25.70;99.70;;;;;;4976083;28;20043;-84
2022/08/13 08:43:02;;;;;;;0.47;0.47;;;26.00;99.50;;;;;;5011847;28;20451;-83
2022/08/13 08:45:29;;;;;;;0.10;0.10;;;26.10;99.80;;;;;;5009246;28;20116;-85
2022/08/13 08:47:56;;;;;;;0.22;0.22;;;26.20;99.30;;;;;;4992873;28;20571;-84
2022/08/13 08:50:26;;;;;;;0.30;0.30;;;26.30;99.00;;;;;;4959695;28;20404;-84
2022/08/13 08:55:40;;;;;;;0.13;0.13;;;26.60;96.90;;;;;;5039796;28;20057;-84
2022/08/13 08:58:07;;;;;;;0.47;0.35;;;26.70;97.80;;;;;;5013965;28;20091;-82
2022/08/13 09:00:36;;;;;;;0.35;0.35;;;26.80;97.80;;;;;;5014111;28;20499;-87
2022/08/13 09:03:04;;;;;;;0.60;0.30;;;27.00;97.00;;;;;;5029900;28;20132;-86
2022/08/13 09:05:31;;;;;;;0.20;0.20;;;27.00;96.80;;;;;;5030096;28;20042;-86
2022/08/13 09:08:00;;;;;;;0.40;0.30;;;27.10;95.00;;;;;;5013921;28;20042;-86
2022/08/13 09:10:32;;;;;;;0.30;0.30;;;27.30;96.10;;;;;;5029719;28;20042;-87
2022/08/13 09:13:02;;;;;;;0.50;0.40;;;27.30;93.80;;;;;;5045797;28;20487;-83
2022/08/13 09:15:36;;;;;;;0.10;0.10;;;27.50;94.50;;;;;;5030225;28;20045;-83
2022/08/13 09:18:03;;;;;;;0.43;0.40;;;27.60;93.90;;;;;;5030004;28;20077;-86
2022/08/13 09:20:33;;;;;;;0.47;0.28;;;27.80;94.00;;;;;;5014261;28;20091;-87
2022/08/13 09:23:08;;;;;;;0.32;0.32;;;27.90;93.90;;;;;;5014193;28;20080;-87
2022/08/13 09:25:35;;;;;;;0.20;0.20;;;28.00;92.10;;;;;;5046473;28;20042;-83
2022/08/13 09:28:03;;;;;;;0.32;0.25;;;28.00;93.20;;;;;;5029751;28;20184;-87
2022/08/13 09:30:31;;;;;;;0.30;0.30;;;28.10;92.20;;;;;;5046205;28;20081;-87
2022/08/13 09:32:59;;;;;;;0.35;0.30;;;28.10;93.70;;;;;;5026485;28;20128;-87
2022/08/13 09:35:28;;;;;;;0.30;0.30;;;28.30;93.50;;;;;;5040667;28;20069;-83
2022/08/13 09:37:57;;;;;;;0.57;0.32;;;28.30;92.30;;;;;;5030221;28;20487;-83
2022/08/13 09:40:27;;;;;;;0.50;0.40;;;28.50;93.00;;;;;;5029895;28;20104;-87
2022/08/13 09:43:01;;;;;;;0.32;0.32;;;28.50;91.70;;;;;;5016498;28;20544;-85
2022/08/13 09:45:29;;;;;;;0.20;0.20;;;28.60;91.70;;;;;;5033435;28;20041;-87
2022/08/13 09:47:57;;;;;;;0.20;0.20;;;28.70;90.40;;;;;;5046489;28;20034;-86
2022/08/13 09:50:25;;;;;;;0.40;0.30;;;28.80;90.50;;;;;;5017544;28;20046;-87
2022/08/13 09:52:53;;;;;;;0.40;0.40;;;28.90;91.60;;;;;;5010319;28;20178;-83
2022/08/13 09:55:22;;;;;;;0.30;0.30;;;28.90;90.00;;;;;;5024830;28;20058;-85
2022/08/13 09:57:59;;;;;;;0.30;0.30;;;29.10;91.30;;;;;;4993920;28;20081;-85
2022/08/13 10:00:29;;;;;;;0.40;0.40;;;29.10;90.40;;;;;;5033686;28;20034;-85
2022/08/13 10:02:59;;;;;;;0.20;0.20;;;29.30;90.00;;;;;;5001298;28;20123;-85
2022/08/13 10:05:32;;;;;;;0.45;0.40;;;29.30;88.60;;;;;;5013269;28;20045;-85
2022/08/13 10:08:00;;;;;;;0.30;0.30;;;29.50;86.80;;;;;;5013090;28;20577;-86
2022/08/13 10:10:28;;;;;;;0.30;0.30;;;29.60;87.60;;;;;;5026518;28;20038;-90
2022/08/13 10:12:57;;;;;;;0.50;0.40;;;29.60;88.70;;;;;;5038464;28;20042;-86
2022/08/13 10:15:23;;;;;;;0.30;0.25;;;29.70;89.40;;;;;;5046276;28;20495;-87
2022/08/13 10:17:58;;;;;;;0.30;0.30;;;29.80;84.30;;;;;;4997420;28;20132;-90
2022/08/13 10:20:40;;;;;;;0.50;0.50;;;30.00;87.40;;;;;;5031030;28;20095;-87
2022/08/13 10:23:09;;;;;;;0.40;0.40;;;30.10;87.50;;;;;;5032922;28;20037;-86
2022/08/13 10:25:37;;;;;;;0.30;0.30;;;30.20;88.90;;;;;;5032921;28;20073;-87
2022/08/13 10:28:23;;;;;;;0.30;0.30;;;30.30;87.60;;;;;;5016831;28;20103;-91
2022/08/13 10:30:50;;;;;;;0.20;0.20;;;30.30;81.30;;;;;;5049626;28;20521;-91
2022/08/13 10:33:18;;;;;;;0.40;0.35;;;30.40;85.20;;;;;;5032935;28;20038;-91
2022/08/13 10:35:51;;;;;;;0.30;0.30;;;30.40;85.80;;;;;;5033569;28;20038;-88
2022/08/13 10:38:25;;;;;;;0.20;0.20;;;30.40;84.90;;;;;;5017909;28;20042;-86
2022/08/13 10:40:53;;;;;;;0.45;0.40;;;30.50;85.50;;;;;;5017568;28;20045;-91
2022/08/13 10:43:23;;;;;;;0.30;0.30;;;30.60;84.10;;;;;;5014041;28;20034;-84
2022/08/13 10:45:50;;;;;;;0.22;0.22;;;30.60;82.40;;;;;;5000986;28;20097;-90
2022/08/13 10:48:17;;;;;;;0.40;0.40;;;30.50;83.60;;;;;;5033177;28;20045;-92
2022/08/13 10:50:44;;;;;;;0.40;0.40;;;30.50;81.50;;;;;;5017028;28;20499;-92
2022/08/13 10:53:55;;;;;;;0.40;0.35;;;30.50;82.60;;;;;;5000492;28;20041;-92
2022/08/13 10:55:58;;;;;;;0.40;0.38;;;30.50;81.80;;;;;;5049021;28;20108;-87
2022/08/13 10:58:24;;;;;;;0.30;0.30;;;30.60;83.30;;;;;;5000325;28;20038;-87
2022/08/13 11:00:51;;;;;;;0.50;0.50;;;30.70;82.60;;;;;;5016604;28;20038;-87
2022/08/13 11:03:18;;;;;;;0.40;0.40;;;30.70;78.30;;;;;;5000578;28;20034;-88
2022/08/13 11:05:46;;;;;;;0.47;0.40;;;30.80;76.30;;;;;;5000977;28;20073;-91
2022/08/13 11:08:14;;;;;;;0.40;0.40;;;30.90;78.80;;;;;;5016592;28;20045;-86
2022/08/13 11:10:40;;;;;;;0.40;0.40;;;30.90;79.00;;;;;;5032585;28;20033;-93
2022/08/13 11:13:07;;;;;;;0.88;0.38;;;31.00;79.60;;;;;;5016443;28;20038;-91
2022/08/13 11:15:34;;;;;;;0.45;0.45;;;31.10;75.00;;;;;;5029382;28;20046;-91
2022/08/13 11:18:01;;;;;;;0.55;0.43;;;31.00;76.70;;;;;;4992244;28;20038;-88
2022/08/13 11:20:29;;;;;;;0.30;0.30;;;31.00;79.40;;;;;;5007209;28;20044;-87
2022/08/13 11:22:56;;;;;;;0.30;0.30;;;31.00;75.20;;;;;;5000304;28;20554;-91
2022/08/13 11:25:23;;;;;;;0.52;0.50;;;30.90;77.20;;;;;;5032047;28;20077;-91
2022/08/13 11:27:51;;;;;;;0.40;0.40;;;30.90;76.90;;;;;;5000704;28;20044;-86
2022/08/13 11:30:19;;;;;;;0.22;0.22;;;31.00;78.00;;;;;;5016015;28;20081;-86
2022/08/13 11:32:46;;;;;;;0.25;0.20;;;30.90;77.60;;;;;;5031709;28;20041;-91
2022/08/13 11:35:12;;;;;;;0.93;0.50;;;31.10;79.20;;;;;;5015867;28;20093;-91
2022/08/13 11:37:48;;;;;;;0.32;0.30;;;31.10;76.80;;;;;;4999906;28;20076;-91
2022/08/13 11:40:14;;;;;;;0.43;0.43;;;31.20;79.60;;;;;;5001149;28;20046;-91
2022/08/13 11:42:41;;;;;;;0.40;0.40;;;31.20;77.00;;;;;;4999985;28;20034;-86
2022/08/13 11:45:08;;;;;;;0.40;0.38;;;31.10;75.30;;;;;;4999884;28;20030;-92
2022/08/13 11:47:40;;;;;;;0.32;0.32;;;31.10;74.90;;;;;;4999967;28;20049;-87
2022/08/13 11:50:07;;;;;;;0.20;0.20;;;31.10;77.10;;;;;;5015473;28;20038;-86
2022/08/13 11:52:34;;;;;;;0.30;0.30;;;31.20;77.60;;;;;;5015417;28;20041;-92
2022/08/13 11:55:00;;;;;;;0.40;0.40;;;31.20;75.30;;;;;;4999435;28;20056;-92
2022/08/13 11:57:27;;;;;;;0.73;0.40;;;31.20;76.60;;;;;;5015474;28;20399;-87
2022/08/13 11:59:54;;;;;;;0.40;0.40;;;31.30;76.40;;;;;;5015350;28;20049;-87
2022/08/13 12:02:21;;;;;;;0.47;0.47;;;31.40;76.60;;;;;;4999702;28;20037;-86
2022/08/13 12:04:48;;;;;;;0.50;0.47;;;31.40;76.00;;;;;;5028239;28;20444;-91
2022/08/13 12:07:15;;;;;;;0.43;0.32;;;31.40;76.70;;;;;;5018988;28;20045;-87
2022/08/13 12:09:42;;;;;;;1.15;0.50;;;31.50;75.80;;;;;;5015415;28;20038;-92
2022/08/13 12:12:08;;;;;;;0.50;0.50;;;31.70;77.00;;;;;;5014983;28;20121;-86
2022/08/13 12:14:35;;;;;;;0.38;0.30;;;31.70;76.40;;;;;;5031722;28;20479;-85
2022/08/13 12:17:02;;;;;;;0.40;0.40;;;31.70;73.90;;;;;;5031676;28;20462;-86
2022/08/13 12:19:29;;;;;;;0.90;0.50;;;31.70;75.80;;;;;;5026019;28;20045;-90
2022/08/13 12:21:55;;;;;;;0.30;0.30;;;31.70;75.00;;;;;;4999252;28;20046;-86
2022/08/13 12:24:22;;;;;;;1.13;0.65;;;31.70;75.10;;;;;;4996293;28;20042;-88
2022/08/13 12:26:49;;;;;;;0.40;0.40;;;31.60;76.20;;;;;;4995122;28;20046;-85
2022/08/13 12:29:15;;;;;;;0.40;0.40;;;31.70;75.80;;;;;;4994629;28;20040;-90
2022/08/13 12:31:42;;;;;;;0.47;0.40;;;31.70;75.90;;;;;;4995001;28;20089;-89
2022/08/13 12:34:09;;;;;;;0.40;0.40;;;31.70;74.80;;;;;;4992423;28;20088;-87
2022/08/13 12:36:35;;;;;;;0.30;0.30;;;31.60;75.20;;;;;;5014244;28;20042;-91
2022/08/13 12:39:03;;;;;;;0.30;0.30;;;31.40;74.10;;;;;;5014514;28;20046;-87
2022/08/13 12:41:31;;;;;;;0.30;0.30;;;31.40;75.80;;;;;;4998714;28;20041;-87
2022/08/13 12:43:57;;;;;;;0.45;0.45;;;31.40;75.90;;;;;;5026188;28;20050;-88
2022/08/13 12:46:24;;;;;;;0.43;0.43;;;31.50;74.40;;;;;;5010930;28;20042;-86
2022/08/13 12:48:53;;;;;;;0.75;0.50;;;31.60;76.10;;;;;;4995144;28;20041;-89
2022/08/13 12:51:20;;;;;;;0.43;0.40;;;31.60;72.90;;;;;;5010913;28;20050;-88
2022/08/13 12:53:47;;;;;;;0.40;0.40;;;31.40;73.00;;;;;;4982716;28;20054;-87
2022/08/13 12:56:14;;;;;;;0.40;0.40;;;31.30;72.60;;;;;;4987914;28;20575;-89
2022/08/13 12:58:40;;;;;;;0.40;0.40;;;31.30;75.30;;;;;;5014631;28;20045;-89
2022/08/13 13:01:07;;;;;;;0.38;0.30;;;31.20;75.20;;;;;;5030158;28;20111;-85
2022/08/13 13:03:34;;;;;;;0.50;0.40;;;31.30;74.00;;;;;;4997947;28;20050;-88
2022/08/13 13:06:01;;;;;;;0.40;0.40;;;31.30;73.60;;;;;;4982125;28;20081;-85
2022/08/13 13:08:33;;;;;;;0.38;0.38;;;31.30;73.30;;;;;;4997365;28;20038;-86
2022/08/13 13:11:03;;;;;;;0.63;0.50;;;31.30;73.10;;;;;;5013803;28;20487;-86
2022/08/13 13:13:32;;;;;;;0.30;0.30;;;31.40;73.10;;;;;;5013752;28;20053;-86
2022/08/13 13:15:58;;;;;;;0.40;0.40;;;31.40;74.10;;;;;;4998277;28;20037;-86
2022/08/13 13:18:26;;;;;;;1.25;0.40;;;31.50;73.90;;;;;;4997258;28;20046;-85